Time;durP1;ratioP1;P1;durP2;ratioP2;P2;SDS_P1;SDS_P2;PMS_P1;PMS_P2;Temp;Humidity;BMP_temperature;BMP_pressure;BME280_temperature;BME280_humidity;BME280_pressure;Samples;Min_cycle;Max_cycle;Signal;HPM_P1;HPM_P2
2023/05/26 05:01:25;;;;;;;;;5.00;2.67;;;;;16.95;54.54;53249.31;6308649;22;45840;-78
2023/05/26 05:03:50;;;;;;;;;5.00;4.00;;;;;17.41;54.41;53419.50;6383934;22;45061;-78
2023/05/26 05:06:15;;;;;;;;;3.00;3.00;;;;;17.42;54.70;52514.69;6381657;22;45143;-77
2023/05/26 05:08:41;;;;;;;;;3.33;3.33;;;;;17.27;54.79;52464.56;6382570;22;44965;-77
2023/05/26 05:11:06;;;;;;;;;5.00;2.00;;;;;17.09;54.86;51802.00;6354163;22;45125;-78
2023/05/26 05:13:32;;;;;;;;;2.33;2.00;;;;;17.40;55.12;51547.06;6383281;22;44960;-77
2023/05/26 05:15:58;;;;;;;;;4.00;4.00;;;;;16.79;55.22;51607.28;6375090;22;46413;-83
2023/05/26 05:18:24;;;;;;;;;5.00;4.67;;;;;16.67;55.34;50526.13;6365045;22;45715;-86
2023/05/26 05:20:49;;;;;;;;;6.33;5.00;;;;;17.37;55.39;49801.53;6338546;22;45588;-84
2023/05/26 05:23:15;;;;;;;;;6.67;6.67;;;;;16.87;55.63;49259.06;6369655;22;45373;-84
2023/05/26 05:25:42;;;;;;;;;4.33;3.67;;;;;17.14;55.31;49326.75;6368382;22;45982;-86
2023/05/26 05:28:09;;;;;;;;;5.00;3.67;;;;;17.00;55.25;49129.00;6339377;22;45426;-82
2023/05/26 05:30:34;;;;;;;;;5.33;3.00;;;;;16.43;55.54;48422.97;6366411;22;45389;-86
2023/05/26 05:33:00;;;;;;;;;4.67;4.67;;;;;16.60;55.43;48527.34;6337383;22;45503;-85
2023/05/26 05:35:25;;;;;;;;;7.00;5.67;;;;;16.54;55.51;47961.47;6366282;22;45714;-86
2023/05/26 05:37:56;;;;;;;;;3.00;3.00;;;;;17.35;55.52;47831.78;6365370;22;45683;-85
2023/05/26 05:40:21;;;;;;;;;2.00;2.00;;;;;17.37;55.48;48593.53;6339624;22;45782;-90
2023/05/26 05:42:46;;;;;;;;;5.00;5.00;;;;;17.14;55.64;47806.56;6341745;22;45502;-86
2023/05/26 05:45:12;;;;;;;;;5.00;4.00;;;;;17.06;55.61;46667.88;6367498;22;45968;-84
2023/05/26 05:47:37;;;;;;;;;8.33;6.00;;;;;17.35;55.83;46311.22;6339113;22;45366;-84
2023/05/26 05:50:02;;;;;;;;;5.67;4.67;;;;;17.11;55.94;46392.59;6368366;22;45309;-84
2023/05/26 05:52:28;;;;;;;;;8.00;7.67;;;;;17.40;55.83;46012.31;6313996;22;45367;-84
2023/05/26 05:54:54;;;;;;;;;5.00;4.00;;;;;17.40;55.23;46780.06;6339708;22;47267;-84
2023/05/26 05:57:20;;;;;;;;;9.00;6.67;;;;;17.05;56.19;45466.81;6339679;22;45374;-84
2023/05/26 05:59:45;;;;;;;;;5.00;5.00;;;;;17.40;55.45;46142.53;6313044;22;45348;-84
2023/05/26 06:02:10;;;;;;;;;7.67;7.67;;;;;17.38;56.19;44835.75;6367090;22;45456;-84
2023/05/26 06:04:36;;;;;;;;;6.00;4.33;;;;;17.31;55.93;44182.44;6338156;22;46176;-84
2023/05/26 06:07:01;;;;;;;;;10.33;5.00;;;;;17.32;55.90;44555.09;6367101;22;45381;-84
2023/05/26 06:09:27;;;;;;;;;8.33;6.67;;;;;17.36;55.87;43938.91;6367138;22;45310;-84
2023/05/26 06:11:52;;;;;;;;;11.00;8.00;;;;;17.09;56.12;44317.41;6366985;22;45372;-85
2023/05/26 06:14:18;;;;;;;;;11.00;8.33;;;;;17.30;56.09;44043.53;6365961;22;45819;-85
2023/05/26 06:16:43;;;;;;;;;8.00;8.00;;;;;16.78;56.23;43576.63;6336300;22;45372;-83
2023/05/26 06:19:08;;;;;;;;;9.00;8.00;;;;;17.33;56.09;43798.47;6368216;22;45913;-83
2023/05/26 06:21:34;;;;;;;;;6.00;6.00;;;;;17.29;55.96;43769.59;6340558;22;45569;-84
2023/05/26 06:23:59;;;;;;;;;6.67;6.00;;;;;17.10;55.80;43298.28;6340248;22;45488;-84
2023/05/26 06:26:25;;;;;;;;;8.33;4.67;;;;;16.67;55.90;43186.53;6368006;22;45468;-84
2023/05/26 06:28:50;;;;;;;;;9.00;6.67;;;;;17.51;56.36;42285.44;6339096;22;45516;-84
2023/05/26 06:31:16;;;;;;;;;7.67;7.67;;;;;17.16;56.06;42270.22;6368127;22;45756;-84
2023/05/26 06:33:41;;;;;;;;;8.00;8.00;;;;;16.90;56.17;41678.09;6339585;22;46881;-83
2023/05/26 06:36:07;;;;;;;;;6.67;5.00;;;;;16.73;55.76;41467.00;6366790;22;45754;-84
2023/05/26 06:38:32;;;;;;;;;5.33;5.33;;;;;17.00;55.95;41939.84;6368201;22;45324;-83
2023/05/26 06:40:57;;;;;;;;;5.33;5.33;;;;;17.19;55.39;42383.59;6339755;22;45334;-83
2023/05/26 06:43:23;;;;;;;;;10.67;8.33;;;;;17.14;55.52;41273.16;6339007;22;47936;-84
2023/05/26 06:45:48;;;;;;;;;7.33;7.33;;;;;16.58;55.61;40581.16;6366413;22;45486;-83
2023/05/26 06:48:13;;;;;;;;;8.33;6.67;;;;;17.62;55.25;41376.63;6367764;22;45589;-83
2023/05/26 06:50:38;;;;;;;;;4.00;4.00;;;;;17.84;55.35;40856.22;6368277;22;45456;-83
2023/05/26 06:53:04;;;;;;;;;4.33;4.00;;;;;16.96;55.81;41342.59;6368235;22;45975;-86
2023/05/26 06:55:30;;;;;;;;;3.33;3.00;;;;;16.80;54.90;41830.22;6364849;22;45375;-87
2023/05/26 06:57:55;;;;;;;;;3.00;3.00;;;;;17.62;54.77;42154.81;6365632;22;45596;-86
2023/05/26 07:00:21;;;;;;;;;4.00;3.00;;;;;18.07;54.64;42219.94;6367555;22;45380;-89
2023/05/26 07:02:47;;;;;;;;;3.00;3.00;;;;;17.83;54.84;42316.63;6364849;22;45305;-90
2023/05/26 07:05:12;;;;;;;;;2.33;2.33;;;;;18.16;54.60;42499.75;6362404;22;45372;-86
2023/05/26 07:07:38;;;;;;;;;3.67;2.00;;;;;18.21;54.66;42408.16;6368256;22;45385;-88
2023/05/26 07:10:03;;;;;;;;;2.33;2.33;;;;;18.22;54.65;42472.38;6369018;22;45342;-91
2023/05/26 07:12:29;;;;;;;;;2.67;2.67;;;;;18.01;54.66;42611.13;6368544;22;47503;-89
2023/05/26 07:14:55;;;;;;;;;1.67;1.67;;;;;18.16;54.34;42521.03;6340547;22;45417;-89
2023/05/26 07:17:20;;;;;;;;;3.00;2.00;;;;;17.92;54.49;42599.78;6339964;22;45409;-89
2023/05/26 07:19:45;;;;;;;;;1.33;1.00;;;;;18.43;54.81;42546.66;6368584;22;45439;-90
2023/05/26 07:22:11;;;;;;;;;3.00;2.33;;;;;17.87;54.07;42492.38;6339002;22;47191;-90
2023/05/26 07:24:36;;;;;;;;;4.33;2.67;;;;;18.04;54.09;42839.34;6365258;22;45357;-89
2023/05/26 07:27:01;;;;;;;;;2.67;2.67;;;;;18.24;53.89;42849.19;6367208;22;45459;-91
2023/05/26 07:29:27;;;;;;;;;3.33;2.00;;;;;18.30;53.37;42922.50;6349061;22;45736;-91
2023/05/26 07:31:52;;;;;;;;;3.00;3.00;;;;;18.59;53.81;43109.09;6351856;22;47203;-90
2023/05/26 07:34:17;;;;;;;;;2.00;2.00;;;;;18.66;53.78;43156.63;6388423;22;45360;-94
2023/05/26 07:36:43;;;;;;;;;1.67;1.67;;;;;17.75;54.16;43036.00;6351633;22;45325;-95
2023/05/26 07:39:09;;;;;;;;;2.00;2.00;;;;;17.57;53.96;43059.50;6351507;22;45292;-94
2023/05/26 07:41:35;;;;;;;;;1.33;1.33;;;;;18.32;53.60;42809.66;6343765;22;46573;-92
2023/05/26 07:44:01;;;;;;;;;2.00;1.67;;;;;18.11;53.80;42725.00;6340692;22;45310;-92
2023/05/26 07:46:26;;;;;;;;;2.00;2.00;;;;;18.12;53.81;42911.84;6339081;22;45336;-90
2023/05/26 07:48:53;;;;;;;;;2.00;2.00;;;;;17.82;53.47;42493.91;6339425;22;45269;-90
2023/05/26 07:51:19;;;;;;;;;2.67;1.33;;;;;18.87;53.85;42280.56;6339084;22;47481;-91
2023/05/26 07:53:44;;;;;;;;;1.33;1.33;;;;;18.08;53.56;42207.41;6338035;22;45534;-88
2023/05/26 07:56:10;;;;;;;;;4.00;2.00;;;;;18.60;53.79;41872.34;6339816;22;45266;-93
2023/05/26 07:58:38;;;;;;;;;3.33;2.00;;;;;18.75;53.59;42011.56;6368166;22;45541;-94
2023/05/26 08:01:06;;;;;;;;;3.00;2.00;;;;;18.28;53.83;41902.91;6368169;22;47107;-90
2023/05/26 08:03:32;;;;;;;;;3.00;1.33;;;;;18.29;53.30;41597.53;6341851;22;45290;-91
2023/05/26 08:05:57;;;;;;;;;4.00;2.00;;;;;18.91;53.47;41738.31;6341952;22;45364;-91
2023/05/26 08:08:23;;;;;;;;;4.33;3.33;;;;;18.82;53.64;41492.19;6370203;22;45232;-91
2023/05/26 08:10:48;;;;;;;;;6.00;3.00;;;;;18.70;53.23;41813.25;6366543;22;48326;-91
2023/05/26 08:13:13;;;;;;;;;2.00;2.00;;;;;18.44;53.23;42175.03;6340394;22;45630;-90
2023/05/26 08:15:39;;;;;;;;;3.00;3.00;;;;;19.07;53.53;41997.38;6370151;22;45696;-91
2023/05/26 08:18:04;;;;;;;;;2.33;2.33;;;;;18.84;53.26;41778.38;6369385;22;45330;-91
2023/05/26 08:20:29;;;;;;;;;2.00;2.00;;;;;19.24;53.18;41801.56;6340640;22;48112;-91
2023/05/26 08:22:58;;;;;;;;;3.00;3.00;;;;;19.40;52.98;41685.56;6341177;22;45452;-95
2023/05/26 08:25:24;;;;;;;;;2.67;2.67;;;;;19.44;53.20;41771.09;6340382;22;45344;-93
2023/05/26 08:27:50;;;;;;;;;3.67;3.67;;;;;19.17;53.21;41746.16;6338763;22;45251;-91
2023/05/26 08:30:15;;;;;;;;;2.67;2.67;;;;;19.32;52.81;41602.81;6370417;22;45301;-90
2023/05/26 08:32:40;;;;;;;;;2.00;2.00;;;;;19.58;52.72;41528.34;6341946;22;45266;-94
2023/05/26 08:35:06;;;;;;;;;1.67;1.67;;;;;19.72;52.67;41602.25;6342400;22;45251;-94
2023/05/26 08:37:31;;;;;;;;;2.67;1.67;;;;;19.55;52.62;41475.16;6344157;22;45232;-93
2023/05/26 08:39:57;;;;;;;;;2.67;1.67;;;;;19.57;52.78;41191.97;6342005;22;47511;-95
2023/05/26 08:42:28;;;;;;;;;1.00;1.00;;;;;19.82;52.96;41047.31;6342403;22;45397;-93
2023/05/26 08:44:53;;;;;;;;;2.00;2.00;;;;;19.78;52.94;40951.16;6343723;22;45718;-91
2023/05/26 08:47:19;;;;;;;;;3.33;3.33;;;;;19.96;52.56;40513.44;6343360;22;45482;-93
2023/05/26 08:50:06;;;;;;;;;2.00;2.00;;;;;20.02;52.89;40488.44;6343177;22;47324;-93
2023/05/26 08:52:32;;;;;;;;;3.33;3.00;;;;;20.09;52.72;40487.78;6344469;22;45347;-94
2023/05/26 08:54:58;;;;;;;;;2.33;2.33;;;;;19.27;52.28;40512.50;6342808;22;45380;-93
2023/05/26 08:57:28;;;;;;;;;2.67;2.67;;;;;20.18;52.57;40355.63;6344947;22;45310;-92
2023/05/26 08:59:56;;;;;;;;;3.00;3.00;;;;;20.31;52.27;39690.06;6343762;22;46883;-93
2023/05/26 09:02:22;;;;;;;;;2.67;1.67;;;;;19.76;52.23;38467.25;6343901;22;45802;-93
2023/05/26 09:04:47;;;;;;;;;4.33;4.00;;;;;20.05;52.41;36457.03;6345601;22;45377;-95
2023/05/26 09:07:12;;;;;;;;;4.00;3.33;;;;;21.03;52.01;32950.47;6344856;22;45224;-93
2023/05/26 09:09:38;;;;;;;;;3.00;3.00;;;;;21.42;50.90;28664.22;6344071;22;47663;-95
2023/05/26 09:12:11;;;;;;;;;2.00;2.00;;;;;23.62;50.73;25699.47;6342774;22;45312;-91
2023/05/26 09:14:38;;;;;;;;;10.33;9.00;;;;;24.12;49.48;24696.66;6341564;22;45394;-89
2023/05/26 09:17:04;;;;;;;;;3.67;3.00;;;;;25.48;48.13;24414.72;6371293;22;45274;-90
2023/05/26 09:19:32;;;;;;;;;5.33;5.00;;;;;26.32;47.26;25138.31;6369585;22;45549;-96
2023/05/26 09:22:08;;;;;;;;;3.67;3.67;;;;;26.90;46.83;26939.06;6344406;22;45394;-91
2023/05/26 09:24:50;;;;;;;;;2.33;2.33;;;;;27.67;46.01;30814.38;6373587;22;45571;-91
2023/05/26 09:27:22;;;;;;;;;3.00;3.00;;;;;28.41;45.04;34782.53;6343575;22;45395;-93
2023/05/26 09:30:00;;;;;;;;;3.00;3.00;;;;;28.69;43.46;40418.13;6371015;22;45649;-95
2023/05/26 09:32:29;;;;;;;;;3.67;3.67;;;;;29.29;42.73;46267.72;6342146;22;45506;-95
2023/05/26 09:34:56;;;;;;;;;3.67;2.67;;;;;29.74;42.20;48570.34;6345580;22;45291;-96
2023/05/26 09:37:29;;;;;;;;;3.25;2.00;;;;;30.28;41.85;50724.84;6346752;22;45276;-96
2023/05/26 09:39:55;;;;;;;;;3.00;3.00;;;;;30.03;41.49;53255.47;6344998;22;47395;-96
2023/05/26 09:42:21;;;;;;;;;6.00;3.00;;;;;30.48;40.75;56774.47;6344948;22;45342;-96
2023/05/26 09:44:49;;;;;;;;;4.00;2.00;;;;;30.60;40.01;58339.94;6344252;22;45387;-94
2023/05/26 09:47:32;;;;;;;;;4.33;3.00;;;;;30.52;40.01;60273.69;6346243;22;45566;-96
2023/05/26 09:50:07;;;;;;;;;3.00;3.00;;;;;31.11;39.50;63450.34;6345249;22;48114;-94
2023/05/26 09:52:34;;;;;;;;;4.33;3.67;;;;;31.78;39.15;64239.44;6344179;22;45374;-95
2023/05/26 09:54:59;;;;;;;;;5.00;4.00;;;;;31.73;38.20;66570.41;6345164;22;45402;-94
2023/05/26 09:57:32;;;;;;;;;5.33;3.33;;;;;30.64;38.35;67805.22;6351949;22;45460;-96
2023/05/26 10:00:01;;;;;;;;;3.00;3.00;;;;;30.44;38.95;67520.72;6353004;22;45931;-96
2023/05/26 10:02:30;;;;;;;;;2.50;2.00;;;;;31.10;39.21;67811.03;6348021;22;46015;-96
2023/05/26 10:04:57;;;;;;;;;3.67;3.67;;;;;30.98;38.17;68337.81;6345255;22;45418;-96
2023/05/26 10:07:22;;;;;;;;;4.00;4.00;;;;;31.08;38.35;68537.94;6345503;22;45386;-95
2023/05/26 10:09:52;;;;;;;;;2.00;2.00;;;;;30.34;39.07;68493.94;6370726;22;47514;-95
2023/05/26 10:12:22;;;;;;;;;2.00;2.00;;;;;29.94;38.63;68641.81;6343509;22;46008;-96
2023/05/26 10:14:48;;;;;;;;;4.00;4.00;;;;;30.41;38.63;68799.56;6359410;22;45270;-95
2023/05/26 10:17:14;;;;;;;;;3.00;3.00;;;;;30.45;38.70;68878.53;6341679;22;45522;-90
2023/05/26 10:19:40;;;;;;;;;3.33;3.33;;;;;30.02;38.23;69000.28;6368597;22;46139;-90
2023/05/26 10:22:12;;;;;;;;;3.50;2.25;;;;;30.70;38.39;69090.31;6368661;22;45380;-90
2023/05/26 10:24:41;;;;;;;;;4.00;4.00;;;;;30.65;38.06;69324.06;6368875;22;45420;-90
2023/05/26 10:27:31;;;;;;;;;3.00;3.00;;;;;30.91;37.78;69488.16;6369908;22;45484;-91
2023/05/26 10:30:10;;;;;;;;;3.75;2.75;;;;;30.60;37.92;69539.25;6340371;22;47768;-90
2023/05/26 10:32:46;;;;;;;;;4.00;4.00;;;;;30.43;38.05;69656.72;6369275;22;45295;-90
2023/05/26 10:35:21;;;;;;;;;7.00;5.00;;;;;31.01;37.23;70037.63;6368989;22;45365;-90
2023/05/26 10:38:01;;;;;;;;;2.67;2.67;;;;;31.06;37.64;70185.69;6370094;22;45393;-90
2023/05/26 10:40:29;;;;;;;;;3.33;3.33;;;;;31.09;37.00;70389.38;6369191;22;45506;-89
2023/05/26 10:42:59;;;;;;;;;4.50;4.50;;;;;30.85;37.36;70486.19;6369115;22;45438;-90
2023/05/26 10:45:29;;;;;;;;;3.67;3.67;;;;;30.93;37.34;70501.28;6369529;22;45443;-90
2023/05/26 10:47:59;;;;;;;;;3.25;3.25;;;;;31.06;37.37;70661.75;6369169;22;45428;-90
2023/05/26 10:50:24;;;;;;;;;3.00;3.00;;;;;31.04;36.95;70751.66;6368789;22;45475;-90
2023/05/26 10:52:51;;;;;;;;;3.50;3.50;;;;;31.42;36.59;70848.97;6369037;22;45353;-91
2023/05/26 10:55:54;;;;;;;;;2.00;2.00;;;;;30.98;35.89;70952.69;6341004;22;45382;-90
2023/05/26 10:58:50;;;;;;;;;3.00;3.00;;;;;31.52;36.17;71128.47;6369577;22;45300;-91
2023/05/26 11:01:35;;;;;;;;;5.33;4.00;;;;;31.47;35.94;71343.94;6368623;22;46439;-91
2023/05/26 11:04:04;;;;;;;;;2.25;2.25;;;;;31.67;36.76;71455.22;6367317;22;45368;-90
2023/05/26 11:06:54;;;;;;;;;3.00;3.00;;;;;31.57;36.17;71552.47;6340113;22;45527;-90
2023/05/26 11:09:25;;;;;;;;;3.00;3.00;;;;;31.86;36.28;71574.16;6351761;22;45282;-91
2023/05/26 11:11:59;;;;;;;;;4.25;3.25;;;;;31.91;35.68;71815.03;6368955;22;45523;-90
2023/05/26 11:14:33;;;;;;;;;3.00;3.00;;;;;32.04;35.79;71943.25;6339837;22;45828;-90
2023/05/26 11:17:04;;;;;;;;;3.00;3.00;;;;;32.14;35.73;71908.94;6368754;22;45246;-90
2023/05/26 11:19:35;;;;;;;;;2.25;2.00;;;;;31.78;35.35;72072.81;6369031;22;45460;-90
2023/05/26 11:22:08;;;;;;;;;1.25;1.25;;;;;32.38;35.13;72180.94;6368728;22;45420;-91
2023/05/26 11:24:34;;;;;;;;;3.25;2.75;;;;;32.48;34.82;72407.00;6368521;22;45370;-90
2023/05/26 11:27:04;;;;;;;;;4.25;2.50;;;;;32.17;34.59;72490.50;6368653;22;45364;-90
2023/05/26 11:29:30;;;;;;;;;1.50;1.50;;;;;32.38;35.13;72619.94;6369062;22;45344;-90
2023/05/26 11:31:56;;;;;;;;;3.67;3.67;;;;;32.51;34.24;72534.03;6368586;22;45682;-90
2023/05/26 11:34:22;;;;;;;;;2.50;2.50;;;;;32.58;33.99;72785.97;6339636;22;45930;-90
2023/05/26 11:36:49;;;;;;;;;4.00;4.00;;;;;32.78;34.54;72878.72;6340775;22;45717;-90
2023/05/26 11:39:15;;;;;;;;;2.00;2.00;;;;;32.60;33.87;72851.50;6369140;22;45353;-90
2023/05/26 11:41:41;;;;;;;;;6.50;3.75;;;;;32.53;34.12;72831.84;6368440;22;46301;-91
2023/05/26 11:44:08;;;;;;;;;2.67;2.67;;;;;32.47;33.74;72877.06;6368581;22;45368;-91
2023/05/26 11:46:37;;;;;;;;;2.33;2.33;;;;;32.58;33.65;72777.75;6368352;22;45476;-90
2023/05/26 11:49:02;;;;;;;;;3.67;3.67;;;;;32.71;32.99;72845.97;6368756;22;45295;-90
2023/05/26 11:51:28;;;;;;;;;2.33;2.33;;;;;32.67;33.32;72818.44;6368323;22;46312;-90
2023/05/26 11:53:56;;;;;;;;;4.25;3.25;;;;;32.57;33.38;72856.00;6368798;22;45329;-90
2023/05/26 11:56:30;;;;;;;;;4.50;3.50;;;;;32.42;33.79;72796.25;6340884;22;45374;-90
2023/05/26 11:58:56;;;;;;;;;3.00;2.00;;;;;32.13;33.55;72608.19;6340537;22;45441;-91
2023/05/26 12:01:25;;;;;;;;;3.00;3.00;;;;;31.83;33.81;72539.44;6375897;22;47943;-90
2023/05/26 12:03:51;;;;;;;;;2.00;2.00;;;;;31.27;34.13;72367.50;6377599;22;45306;-90
2023/05/26 12:06:16;;;;;;;;;3.00;3.00;;;;;31.66;34.36;72412.31;6370450;22;45297;-91
2023/05/26 12:08:46;;;;;;;;;2.75;2.75;;;;;31.13;33.98;72247.53;6340051;22;45338;-90
2023/05/26 12:11:13;;;;;;;;;3.00;3.00;;;;;31.28;33.67;72183.38;6368088;22;45874;-90
2023/05/26 12:13:39;;;;;;;;;3.33;3.33;;;;;31.00;34.49;72135.84;6339701;22;45357;-90
2023/05/26 12:16:05;;;;;;;;;2.00;2.00;;;;;30.89;34.49;72040.31;6340287;22;45380;-91
2023/05/26 12:18:30;;;;;;;;;3.00;3.00;;;;;30.83;34.20;71940.63;6339971;22;45369;-90
2023/05/26 12:20:55;;;;;;;;;4.33;3.00;;;;;30.45;34.59;71881.53;6339736;22;47380;-89
2023/05/26 12:23:24;;;;;;;;;2.33;2.33;;;;;30.35;34.47;71839.25;6339864;22;45287;-90
2023/05/26 12:25:50;;;;;;;;;3.33;3.33;;;;;30.53;34.49;71871.63;6340192;22;45423;-90
2023/05/26 12:28:15;;;;;;;;;2.25;2.25;;;;;30.42;34.26;71841.75;6368901;22;45403;-90
2023/05/26 12:30:41;;;;;;;;;2.33;2.33;;;;;30.05;34.44;71712.97;6367425;22;45412;-89
2023/05/26 12:33:06;;;;;;;;;3.33;2.33;;;;;29.77;34.27;71668.41;6368614;22;45386;-90
2023/05/26 12:35:31;;;;;;;;;3.00;2.33;;;;;30.02;34.77;71679.28;6368565;22;45349;-90
2023/05/26 12:37:57;;;;;;;;;2.00;2.00;;;;;29.57;34.87;71536.03;6340256;22;45373;-90
2023/05/26 12:40:22;;;;;;;;;6.00;3.00;;;;;29.48;34.73;71582.28;6339827;22;47280;-90
2023/05/26 12:42:48;;;;;;;;;4.67;3.00;;;;;29.65;34.98;71493.97;6367737;22;45434;-90
2023/05/26 12:45:13;;;;;;;;;3.33;2.00;;;;;29.63;34.53;71542.75;6363859;22;45365;-90
2023/05/26 12:47:38;;;;;;;;;4.67;2.33;;;;;29.78;34.55;71475.94;6338826;22;45397;-90
2023/05/26 12:50:04;;;;;;;;;1.00;1.00;;;;;29.37;34.42;71367.72;6366979;22;45921;-90
2023/05/26 12:52:30;;;;;;;;;2.33;2.33;;;;;29.37;34.59;71359.53;6338875;22;46384;-89
2023/05/26 12:54:56;;;;;;;;;2.67;2.67;;;;;28.97;34.64;71344.03;6367091;22;45349;-89
2023/05/26 12:57:22;;;;;;;;;2.67;2.67;;;;;29.38;34.61;71324.69;6368185;22;45267;-90
2023/05/26 12:59:47;;;;;;;;;3.00;3.00;;;;;28.89;34.83;71296.72;6367271;22;46473;-90
2023/05/26 13:02:13;;;;;;;;;4.00;2.33;;;;;29.14;34.60;71274.25;6367549;22;45348;-91
2023/05/26 13:04:38;;;;;;;;;2.33;2.33;;;;;28.68;34.79;71244.53;6339417;22;45310;-90
2023/05/26 13:07:05;;;;;;;;;3.00;2.00;;;;;27.89;35.14;71044.66;6339424;22;45381;-90
2023/05/26 13:09:34;;;;;;;;;2.00;2.00;;;;;28.64;35.18;71249.94;6339774;22;47457;-89
2023/05/26 13:12:01;;;;;;;;;2.00;2.00;;;;;28.51;35.63;71120.38;6339047;22;45387;-90
2023/05/26 13:14:27;;;;;;;;;3.00;3.00;;;;;27.63;35.30;71061.94;6338645;22;45318;-89
2023/05/26 13:16:52;;;;;;;;;1.00;1.00;;;;;27.49;35.16;70904.22;6340830;22;45551;-90
2023/05/26 13:19:18;;;;;;;;;1.67;1.67;;;;;27.65;35.36;70961.69;6338711;22;47027;-88
2023/05/26 13:21:47;;;;;;;;;2.00;2.00;;;;;27.61;35.17;70958.94;6368198;22;45366;-89
2023/05/26 13:24:13;;;;;;;;;2.25;2.25;;;;;27.55;35.73;70909.38;6339130;22;45331;-88
2023/05/26 13:26:38;;;;;;;;;1.25;1.25;;;;;27.90;35.63;70990.88;6338811;22;45404;-88
2023/05/26 13:29:10;;;;;;;;;2.00;2.00;;;;;27.92;35.30;70988.47;6367307;22;45375;-88
2023/05/26 13:31:38;;;;;;;;;2.00;2.00;;;;;27.44;35.87;70879.72;6367719;22;45349;-90
2023/05/26 13:34:04;;;;;;;;;2.00;2.00;;;;;27.22;35.69;70766.09;6368025;22;45441;-89
2023/05/26 13:36:29;;;;;;;;;4.00;2.75;;;;;27.13;35.82;70943.19;6339688;22;45457;-96
2023/05/26 13:39:04;;;;;;;;;2.25;2.00;;;;;28.07;36.37;70981.00;6340701;22;46940;-94
2023/05/26 13:41:29;;;;;;;;;1.50;1.50;;;;;28.16;36.27;70948.41;6340173;22;45071;-82
2023/05/26 13:43:55;;;;;;;;;3.00;1.25;;;;;27.99;36.12;70928.97;6353887;22;44922;-82
2023/05/26 13:46:21;;;;;;;;;3.00;3.00;;;;;27.88;35.65;70891.13;6354679;22;44993;-81
2023/05/26 13:48:46;;;;;;;;;3.00;3.00;;;;;28.33;35.95;70901.03;6354547;22;45824;-80
2023/05/26 13:51:11;;;;;;;;;1.00;1.00;;;;;28.26;35.73;70976.88;6354386;22;45003;-83
2023/05/26 13:53:37;;;;;;;;;1.00;1.00;;;;;27.83;36.01;70879.63;6354690;22;44888;-84
2023/05/26 13:56:03;;;;;;;;;1.00;1.00;;;;;28.00;35.91;70845.25;6354984;22;45100;-84
2023/05/26 13:58:28;;;;;;;;;2.67;2.67;;;;;27.89;36.01;70886.94;6353936;22;46596;-85
2023/05/26 14:00:54;;;;;;;;;2.50;1.75;;;;;27.53;35.91;70881.88;6354385;22;44956;-84
2023/05/26 14:03:19;;;;;;;;;2.00;2.00;;;;;27.61;35.68;70801.91;6355059;22;44820;-84
2023/05/26 14:05:45;;;;;;;;;2.00;2.00;;;;;27.82;36.06;70845.19;6355392;22;45040;-84
2023/05/26 14:08:10;;;;;;;;;4.67;2.33;;;;;27.40;36.16;70896.00;6354926;22;46653;-84
2023/05/26 14:10:38;;;;;;;;;1.50;1.50;;;;;27.63;36.16;70852.63;6354855;22;44880;-82
2023/05/26 14:13:04;;;;;;;;;1.25;1.25;;;;;27.20;36.60;70824.03;6354015;22;44896;-85
2023/05/26 14:15:29;;;;;;;;;0.25;0.25;;;;;27.02;36.49;70743.06;6328567;22;45114;-84
2023/05/26 14:17:55;;;;;;;;;4.33;3.00;;;;;27.46;36.42;70762.56;6355379;22;46553;-84
2023/05/26 14:20:21;;;;;;;;;3.00;3.00;;;;;27.68;36.56;70769.59;6353949;22;44878;-84
2023/05/26 14:22:47;;;;;;;;;1.00;1.00;;;;;27.66;36.55;70807.94;6353795;22;44902;-86
2023/05/26 14:25:12;;;;;;;;;4.00;2.33;;;;;27.48;36.60;70813.31;6354823;22;44946;-84
2023/05/26 14:27:38;;;;;;;;;1.50;1.50;;;;;27.57;36.98;70691.66;6354611;22;46131;-85
2023/05/26 14:30:04;;;;;;;;;2.00;2.00;;;;;27.39;37.19;70650.84;6355423;22;44816;-85
2023/05/26 14:32:29;;;;;;;;;2.50;1.50;;;;;27.50;36.82;70688.59;6354999;22;44918;-85
2023/05/26 14:34:55;;;;;;;;;1.00;1.00;;;;;26.83;37.01;70666.34;6354937;22;44912;-85
2023/05/26 14:37:20;;;;;;;;;2.00;2.00;;;;;27.46;37.13;70688.59;6354156;22;49955;-84
2023/05/26 14:39:45;;;;;;;;;3.25;2.25;;;;;27.29;37.17;70677.38;6354280;22;44842;-83
2023/05/26 14:42:11;;;;;;;;;2.25;2.25;;;;;27.35;37.04;70711.22;6354040;22;44881;-86
2023/05/26 14:44:36;;;;;;;;;7.00;5.33;;;;;27.22;37.16;70692.75;6354928;22;45360;-85
2023/05/26 14:47:02;;;;;;;;;2.67;2.67;;;;;27.32;37.70;70626.69;6353648;22;45435;-85
2023/05/26 14:49:27;;;;;;;;;2.67;2.67;;;;;27.29;37.30;70603.44;6354369;22;44826;-84
2023/05/26 14:51:52;;;;;;;;;2.00;2.00;;;;;27.27;37.32;70636.31;6354070;22;44865;-83
2023/05/26 14:54:19;;;;;;;;;2.00;2.00;;;;;27.23;37.36;70596.78;6354463;22;45131;-85
2023/05/26 14:56:44;;;;;;;;;1.00;1.00;;;;;27.02;37.51;70582.22;6353922;22;46364;-85
2023/05/26 14:59:10;;;;;;;;;3.00;3.00;;;;;27.06;37.55;70568.66;6354178;22;45171;-83
2023/05/26 15:01:35;;;;;;;;;2.50;2.50;;;;;27.16;37.59;70499.28;6354662;22;44824;-85
2023/05/26 15:04:01;;;;;;;;;1.50;1.50;;;;;27.13;37.40;70544.53;6327462;22;44905;-85
2023/05/26 15:06:27;;;;;;;;;1.50;1.50;;;;;27.07;38.06;70534.56;6353847;22;45094;-83
2023/05/26 15:08:54;;;;;;;;;2.00;2.00;;;;;27.05;37.77;70499.56;6354049;22;44893;-83
2023/05/26 15:11:20;;;;;;;;;1.75;1.75;;;;;27.01;38.12;70467.56;6353980;22;44948;-84
2023/05/26 15:13:45;;;;;;;;;7.00;2.00;;;;;26.97;37.80;70500.75;6327075;22;44901;-84
2023/05/26 15:16:10;;;;;;;;;2.00;2.00;;;;;26.93;37.79;70501.38;6354078;22;49426;-85
2023/05/26 15:18:36;;;;;;;;;1.00;1.00;;;;;26.76;38.24;70429.84;6354021;22;45059;-84
2023/05/26 15:21:03;;;;;;;;;1.25;1.25;;;;;26.84;38.16;70466.66;6354315;22;44853;-91
2023/05/26 15:23:37;;;;;;;;;1.50;1.50;;;;;26.80;38.44;70431.97;6354724;22;44890;-91
2023/05/26 15:26:02;;;;;;;;;2.25;1.00;;;;;26.76;38.17;70429.84;6353954;22;45735;-95
2023/05/26 15:28:28;;;;;;;;;2.00;2.00;;;;;26.71;38.79;70383.72;6355111;22;44855;-93
2023/05/26 15:30:54;;;;;;;;;1.00;1.00;;;;;26.68;38.27;70365.94;6354734;22;45118;-87
2023/05/26 15:33:21;;;;;;;;;1.75;1.75;;;;;26.63;38.25;70368.63;6354442;22;44842;-88
2023/05/26 15:35:47;;;;;;;;;2.33;2.00;;;;;26.44;38.68;70326.72;6354683;22;46069;-89
2023/05/26 15:38:12;;;;;;;;;2.33;2.33;;;;;26.55;38.36;70331.88;6353895;22;44922;-94
2023/05/26 15:40:38;;;;;;;;;2.00;2.00;;;;;26.24;38.50;70295.06;6354932;22;44860;-91
2023/05/26 15:43:03;;;;;;;;;2.67;2.00;;;;;26.47;38.76;70189.84;6353353;22;44875;-93
2023/05/26 15:45:29;;;;;;;;;1.33;1.33;;;;;26.44;38.29;70324.59;6351651;22;45986;-89
2023/05/26 15:47:55;;;;;;;;;2.00;2.00;;;;;26.40;38.57;70287.22;6353047;22;44928;-85
2023/05/26 15:50:20;;;;;;;;;1.00;1.00;;;;;26.36;38.57;70239.00;6351278;22;44941;-84
2023/05/26 15:52:45;;;;;;;;;1.00;1.00;;;;;26.32;38.60;70277.59;6352371;22;45012;-84
2023/05/26 15:55:11;;;;;;;;;2.00;2.00;;;;;26.23;38.70;70307.44;6350404;22;46360;-85
2023/05/26 15:57:36;;;;;;;;;2.33;2.33;;;;;26.09;38.88;70256.50;6351997;22;44837;-84
2023/05/26 16:00:02;;;;;;;;;1.75;1.75;;;;;26.09;38.40;70261.34;6353593;22;44895;-84
2023/05/26 16:02:28;;;;;;;;;2.00;2.00;;;;;26.21;38.82;70245.34;6353653;22;44749;-83
2023/05/26 16:04:53;;;;;;;;;2.67;2.67;;;;;26.17;38.98;70311.63;6324365;22;47090;-82
2023/05/26 16:07:18;;;;;;;;;1.33;1.33;;;;;26.14;38.75;70215.25;6352100;22;44870;-83
2023/05/26 16:09:44;;;;;;;;;1.67;1.67;;;;;26.01;38.48;70214.34;6352898;22;44969;-83
2023/05/26 16:12:09;;;;;;;;;2.00;1.25;;;;;26.05;38.53;70200.16;6353325;22;45055;-83
2023/05/26 16:14:37;;;;;;;;;2.00;2.00;;;;;26.04;38.77;70209.22;6352458;22;45120;-84
2023/05/26 16:17:03;;;;;;;;;1.00;1.00;;;;;25.98;38.96;70139.66;6353392;22;44914;-84
2023/05/26 16:19:29;;;;;;;;;1.33;1.33;;;;;25.97;39.15;70193.25;6352659;22;45190;-83
2023/05/26 16:21:54;;;;;;;;;1.00;1.00;;;;;25.92;38.85;70198.09;6349196;22;45266;-84
2023/05/26 16:24:19;;;;;;;;;1.00;1.00;;;;;25.90;39.13;70190.25;6351058;22;45120;-88
2023/05/26 16:26:47;;;;;;;;;1.33;1.33;;;;;25.61;39.08;70126.13;6351113;22;44945;-92
2023/05/26 16:29:14;;;;;;;;;1.00;1.00;;;;;25.82;38.98;70188.72;6354530;22;45064;-96
2023/05/26 16:31:46;;;;;;;;;1.00;1.00;;;;;25.14;39.27;70070.75;6352993;22;44737;-94
2023/05/26 16:38:12;;;;;;;;;2.00;2.00;;;;;25.05;39.04;70055.13;6353398;22;45252;-84